Etusivu
METAR-TAF:

METAR-TAF

Lentoasemat :

Sapporo, Japani

Leveyspiiri: 43-07N, Pituuspiiri: 141-23E, korkeus merenpinnasta: 8 m

Tämänhetkinen sää

Tämä raportti tehtiin 1 tunti ja 10 minuuttia sitten, kello 08.00 UTC
Tuuli 3 kn lännestä/lounaasta, vaihdellen etelän ja lännen välillä
Lämpötila 0°C
Kosteus 51%
Ilmanpaine 1028 hPa
Näkyvyys 10 km tai enemmän
Muutamia pilviä 2000 ft:n korkeudessa
Hajonneita pilviä 5000 ft:n korkeudessa

METAR: RJCO 200800Z 24003KT 190V260 9999 FEW020 BKN050 00/M09 Q1028

Aika: 18:10 (09:10 UTC)


TAF: puuttuu

Säähavainnot ja -ennusteet yli 4000 lentoasemalta (METAR- ja TAF-raportit).

Käytössä olevat sääasemat on merkitty karttaan keltaisilla ja punaisilla pisteillä.

Aseta hiiri pisteen päälle nähdäksesi sääaseman nimen.

Klikkaa sitten nähdäksesi säähavainnot ja -ennusteet.

Kartan vaihtaminen: klikkaa mustalla rastilla varustettuja vihreitä pisteitä, niin voit zoomata sisään; viivalla varustettua vihreää pistettä, niin voit zoomata ulos tai vihreitä nuolia, niin pääset viereisille kartoille.


METAR-TAF: